sensor_id;sensor_type;location;lat;lon;timestamp;pressure;altitude;pressure_sealevel;temperature;humidity
63194;BME280;49289;51.670;5.624;2023-07-20T00:00:39;101511.96;;;25.08;54.31
63194;BME280;49289;51.670;5.624;2023-07-20T00:02:26;101507.50;;;25.29;54.08
63194;BME280;49289;51.670;5.624;2023-07-20T00:04:13;101529.97;;;25.54;54.32
63194;BME280;49289;51.670;5.624;2023-07-20T00:06:00;101507.86;;;25.27;54.97
63194;BME280;49289;51.670;5.624;2023-07-20T00:07:47;101529.47;;;25.22;55.53
63194;BME280;49289;51.670;5.624;2023-07-20T00:09:34;101533.59;;;25.34;55.60
63194;BME280;49289;51.670;5.624;2023-07-20T00:11:25;101530.44;;;25.38;55.88
63194;BME280;49289;51.670;5.624;2023-07-20T00:13:11;101529.73;;;25.60;55.71
63194;BME280;49289;51.670;5.624;2023-07-20T00:14:59;101531.40;;;25.64;55.73
63194;BME280;49289;51.670;5.624;2023-07-20T00:16:47;101524.55;;;24.78;58.19
63194;BME280;49289;51.670;5.624;2023-07-20T00:18:35;101527.80;;;24.94;58.71
63194;BME280;49289;51.670;5.624;2023-07-20T00:20:23;101507.95;;;25.01;58.82
63194;BME280;49289;51.670;5.624;2023-07-20T00:22:11;101524.95;;;25.32;58.46
63194;BME280;49289;51.670;5.624;2023-07-20T00:23:59;101526.25;;;25.48;58.68
63194;BME280;49289;51.670;5.624;2023-07-20T00:25:48;101531.55;;;25.55;58.87
63194;BME280;49289;51.670;5.624;2023-07-20T00:27:36;101531.72;;;25.55;59.18
63194;BME280;49289;51.670;5.624;2023-07-20T00:29:24;101534.12;;;25.59;59.44
63194;BME280;49289;51.670;5.624;2023-07-20T00:31:12;101504.19;;;25.41;59.76
63194;BME280;49289;51.670;5.624;2023-07-20T00:33:00;101527.78;;;25.43;59.93
63194;BME280;49289;51.670;5.624;2023-07-20T00:34:48;101528.81;;;25.23;59.90
63194;BME280;49289;51.670;5.624;2023-07-20T00:36:36;101526.80;;;24.69;60.92
63194;BME280;49289;51.670;5.624;2023-07-20T00:38:23;101521.87;;;24.60;62.95
63194;BME280;49289;51.670;5.624;2023-07-20T00:40:12;101509.36;;;24.61;63.01
63194;BME280;49289;51.670;5.624;2023-07-20T00:42:00;101532.06;;;24.82;62.43
63194;BME280;49289;51.670;5.624;2023-07-20T00:43:48;101524.21;;;24.30;64.18
63194;BME280;49289;51.670;5.624;2023-07-20T00:45:35;101534.70;;;24.61;64.96
63194;BME280;49289;51.670;5.624;2023-07-20T00:47:22;101535.87;;;24.83;64.72
63194;BME280;49289;51.670;5.624;2023-07-20T00:49:09;101534.91;;;24.88;64.48
63194;BME280;49289;51.670;5.624;2023-07-20T00:50:56;101512.91;;;24.58;65.32
63194;BME280;49289;51.670;5.624;2023-07-20T00:52:44;101533.24;;;24.82;65.84
63194;BME280;49289;51.670;5.624;2023-07-20T00:54:33;101531.85;;;24.77;66.40
63194;BME280;49289;51.670;5.624;2023-07-20T00:56:21;101535.20;;;24.83;66.20
63194;BME280;49289;51.670;5.624;2023-07-20T00:58:08;101512.00;;;24.71;66.37
63194;BME280;49289;51.670;5.624;2023-07-20T00:59:57;101534.89;;;24.75;65.95
63194;BME280;49289;51.670;5.624;2023-07-20T01:01:45;101534.84;;;24.81;66.22
63194;BME280;49289;51.670;5.624;2023-07-20T01:03:32;101535.50;;;24.86;66.64
63194;BME280;49289;51.670;5.624;2023-07-20T01:05:19;101514.59;;;24.73;66.51
63194;BME280;49289;51.670;5.624;2023-07-20T01:07:08;101514.50;;;24.75;66.27
63194;BME280;49289;51.670;5.624;2023-07-20T01:08:56;101537.11;;;24.82;66.39
63194;BME280;49289;51.670;5.624;2023-07-20T01:10:46;101539.88;;;24.82;66.45
63194;BME280;49289;51.670;5.624;2023-07-20T01:12:33;101536.00;;;24.72;66.57
63194;BME280;49289;51.670;5.624;2023-07-20T01:14:20;101537.45;;;24.70;66.68
63194;BME280;49289;51.670;5.624;2023-07-20T01:16:09;101540.30;;;24.69;67.21
63194;BME280;49289;51.670;5.624;2023-07-20T01:17:56;101520.89;;;24.56;67.23
63194;BME280;49289;51.670;5.624;2023-07-20T01:19:43;101540.11;;;24.73;67.01
63194;BME280;49289;51.670;5.624;2023-07-20T01:21:33;101517.67;;;24.65;66.67
63194;BME280;49289;51.670;5.624;2023-07-20T01:23:27;101546.31;;;24.63;67.03
63194;BME280;49289;51.670;5.624;2023-07-20T01:25:40;101520.80;;;24.56;67.41
63194;BME280;49289;51.670;5.624;2023-07-20T01:27:58;101547.48;;;24.75;67.37
63194;BME280;49289;51.670;5.624;2023-07-20T01:29:50;101525.45;;;24.68;67.44
63194;BME280;49289;51.670;5.624;2023-07-20T01:31:36;101525.00;;;24.74;67.48
63194;BME280;49289;51.670;5.624;2023-07-20T01:33:25;101526.11;;;24.71;67.40
63194;BME280;49289;51.670;5.624;2023-07-20T01:35:13;101548.94;;;24.82;67.12
63194;BME280;49289;51.670;5.624;2023-07-20T01:36:59;101542.37;;;24.88;67.17
63194;BME280;49289;51.670;5.624;2023-07-20T01:38:46;101541.74;;;24.94;67.00
63194;BME280;49289;51.670;5.624;2023-07-20T01:40:34;101541.33;;;24.93;66.76
63194;BME280;49289;51.670;5.624;2023-07-20T01:42:23;101544.45;;;24.91;66.26
63194;BME280;49289;51.670;5.624;2023-07-20T01:44:11;101543.45;;;24.75;66.88
63194;BME280;49289;51.670;5.624;2023-07-20T01:45:58;101542.77;;;24.66;66.83
63194;BME280;49289;51.670;5.624;2023-07-20T01:47:45;101545.02;;;24.67;66.77
63194;BME280;49289;51.670;5.624;2023-07-20T01:49:32;101541.20;;;24.73;66.61
63194;BME280;49289;51.670;5.624;2023-07-20T01:51:20;101543.64;;;24.55;66.05
63194;BME280;49289;51.670;5.624;2023-07-20T01:53:08;101521.09;;;24.34;66.97
63194;BME280;49289;51.670;5.624;2023-07-20T01:54:56;101543.00;;;24.63;66.90
63194;BME280;49289;51.670;5.624;2023-07-20T01:56:43;101525.26;;;24.37;66.81
63194;BME280;49289;51.670;5.624;2023-07-20T01:58:30;101529.90;;;24.21;66.59
63194;BME280;49289;51.670;5.624;2023-07-20T02:00:19;101552.91;;;24.29;67.17
63194;BME280;49289;51.670;5.624;2023-07-20T02:02:07;101551.87;;;24.27;66.98
63194;BME280;49289;51.670;5.624;2023-07-20T02:03:55;101548.81;;;24.41;66.86
63194;BME280;49289;51.670;5.624;2023-07-20T02:05:42;101550.62;;;24.51;66.48
63194;BME280;49289;51.670;5.624;2023-07-20T02:07:29;101553.23;;;24.52;66.26
63194;BME280;49289;51.670;5.624;2023-07-20T02:09:16;101546.73;;;24.56;66.00
63194;BME280;49289;51.670;5.624;2023-07-20T02:11:03;101550.27;;;24.55;66.08
63194;BME280;49289;51.670;5.624;2023-07-20T02:12:50;101551.45;;;24.53;65.72
63194;BME280;49289;51.670;5.624;2023-07-20T02:14:37;101554.25;;;24.50;65.50
63194;BME280;49289;51.670;5.624;2023-07-20T02:16:24;101557.62;;;24.47;65.93
63194;BME280;49289;51.670;5.624;2023-07-20T02:18:12;101558.28;;;24.49;65.74
63194;BME280;49289;51.670;5.624;2023-07-20T02:20:03;101551.84;;;24.44;65.81
63194;BME280;49289;51.670;5.624;2023-07-20T02:21:51;101551.59;;;24.45;65.41
63194;BME280;49289;51.670;5.624;2023-07-20T02:23:39;101554.87;;;24.44;65.61
63194;BME280;49289;51.670;5.624;2023-07-20T02:25:26;101555.02;;;24.40;65.52
63194;BME280;49289;51.670;5.624;2023-07-20T02:27:13;101535.23;;;24.10;65.67
63194;BME280;49289;51.670;5.624;2023-07-20T02:29:00;101561.63;;;24.23;66.07
63194;BME280;49289;51.670;5.624;2023-07-20T02:30:50;101560.10;;;24.26;65.75
63194;BME280;49289;51.670;5.624;2023-07-20T02:32:38;101559.85;;;24.32;65.72
63194;BME280;49289;51.670;5.624;2023-07-20T02:34:26;101559.42;;;24.28;65.63
63194;BME280;49289;51.670;5.624;2023-07-20T02:36:13;101561.87;;;24.32;65.66
63194;BME280;49289;51.670;5.624;2023-07-20T02:38:00;101567.48;;;24.32;65.47
63194;BME280;49289;51.670;5.624;2023-07-20T02:39:47;101566.47;;;24.27;65.37
63194;BME280;49289;51.670;5.624;2023-07-20T02:41:35;101546.55;;;24.13;65.47
63194;BME280;49289;51.670;5.624;2023-07-20T02:43:22;101566.72;;;24.20;65.82
63194;BME280;49289;51.670;5.624;2023-07-20T02:45:11;101569.95;;;24.12;65.84
63194;BME280;49289;51.670;5.624;2023-07-20T02:47:00;101568.34;;;24.15;66.35
63194;BME280;49289;51.670;5.624;2023-07-20T02:48:48;101548.17;;;24.05;65.96
63194;BME280;49289;51.670;5.624;2023-07-20T02:50:36;101575.16;;;24.02;65.91
63194;BME280;49289;51.670;5.624;2023-07-20T02:52:24;101576.68;;;24.05;66.09
63194;BME280;49289;51.670;5.624;2023-07-20T02:54:11;101572.83;;;23.96;65.13
63194;BME280;49289;51.670;5.624;2023-07-20T02:56:01;101564.28;;;23.82;66.00
63194;BME280;49289;51.670;5.624;2023-07-20T02:57:49;101568.50;;;23.58;65.93
63194;BME280;49289;51.670;5.624;2023-07-20T02:59:37;101569.28;;;23.65;65.96
63194;BME280;49289;51.670;5.624;2023-07-20T03:01:25;101588.34;;;23.92;65.90
63194;BME280;49289;51.670;5.624;2023-07-20T03:03:13;101591.35;;;23.97;65.55
63194;BME280;49289;51.670;5.624;2023-07-20T03:05:01;101574.86;;;23.90;65.38
63194;BME280;49289;51.670;5.624;2023-07-20T03:06:49;101591.84;;;23.99;65.34
63194;BME280;49289;51.670;5.624;2023-07-20T03:08:36;101573.77;;;23.87;65.25
63194;BME280;49289;51.670;5.624;2023-07-20T03:10:23;101596.05;;;23.97;64.93
63194;BME280;49289;51.670;5.624;2023-07-20T03:12:13;101576.13;;;23.84;64.79
63194;BME280;49289;51.670;5.624;2023-07-20T03:14:01;101576.21;;;23.74;64.08
63194;BME280;49289;51.670;5.624;2023-07-20T03:15:48;101599.58;;;23.80;64.72
63194;BME280;49289;51.670;5.624;2023-07-20T03:17:35;101587.80;;;23.68;64.71
63194;BME280;49289;51.670;5.624;2023-07-20T03:19:22;101610.75;;;23.86;64.36
63194;BME280;49289;51.670;5.624;2023-07-20T03:21:10;101607.98;;;23.83;64.56
63194;BME280;49289;51.670;5.624;2023-07-20T03:22:57;101611.76;;;23.84;64.27
63194;BME280;49289;51.670;5.624;2023-07-20T03:24:45;101615.42;;;23.80;64.53
63194;BME280;49289;51.670;5.624;2023-07-20T03:26:34;101615.77;;;23.77;64.20
63194;BME280;49289;51.670;5.624;2023-07-20T03:28:22;101615.42;;;23.82;64.27
63194;BME280;49289;51.670;5.624;2023-07-20T03:30:11;101612.16;;;23.79;64.18
63194;BME280;49289;51.670;5.624;2023-07-20T03:31:58;101584.19;;;23.66;63.98
63194;BME280;49289;51.670;5.624;2023-07-20T03:33:45;101587.30;;;23.63;63.87
63194;BME280;49289;51.670;5.624;2023-07-20T03:35:32;101604.62;;;23.72;64.07
63194;BME280;49289;51.670;5.624;2023-07-20T03:37:19;101583.34;;;23.58;63.97
63194;BME280;49289;51.670;5.624;2023-07-20T03:39:06;101586.77;;;23.57;64.09
63194;BME280;49289;51.670;5.624;2023-07-20T03:41:01;101591.86;;;23.51;64.16
63194;BME280;49289;51.670;5.624;2023-07-20T03:42:48;101588.34;;;23.51;64.28
63194;BME280;49289;51.670;5.624;2023-07-20T03:44:35;101616.86;;;23.57;64.33
63194;BME280;49289;51.670;5.624;2023-07-20T03:46:22;101614.34;;;23.56;64.71
63194;BME280;49289;51.670;5.624;2023-07-20T03:48:11;101591.92;;;23.42;64.75
63194;BME280;49289;51.670;5.624;2023-07-20T03:49:59;101619.66;;;23.36;66.01
63194;BME280;49289;51.670;5.624;2023-07-20T03:51:47;101619.91;;;23.02;67.29
63194;BME280;49289;51.670;5.624;2023-07-20T03:53:35;101621.58;;;23.36;67.65
63194;BME280;49289;51.670;5.624;2023-07-20T03:55:22;101601.39;;;23.39;66.41
63194;BME280;49289;51.670;5.624;2023-07-20T03:57:10;101625.05;;;23.10;67.96
63194;BME280;49289;51.670;5.624;2023-07-20T03:58:58;101624.84;;;23.36;67.90
63194;BME280;49289;51.670;5.624;2023-07-20T04:00:45;101601.84;;;23.44;66.86
63194;BME280;49289;51.670;5.624;2023-07-20T04:02:32;101624.25;;;23.64;66.45
63194;BME280;49289;51.670;5.624;2023-07-20T04:04:19;101625.50;;;23.69;65.96
63194;BME280;49289;51.670;5.624;2023-07-20T04:06:06;101624.33;;;23.68;65.56
63194;BME280;49289;51.670;5.624;2023-07-20T04:07:53;101608.11;;;23.55;65.40
63194;BME280;49289;51.670;5.624;2023-07-20T04:09:41;101630.63;;;23.64;65.65
63194;BME280;49289;51.670;5.624;2023-07-20T04:11:30;101605.02;;;23.51;65.70
63194;BME280;49289;51.670;5.624;2023-07-20T04:13:18;101625.34;;;23.67;65.87
63194;BME280;49289;51.670;5.624;2023-07-20T04:15:06;101628.22;;;23.53;66.67
63194;BME280;49289;51.670;5.624;2023-07-20T04:16:53;101606.41;;;23.42;66.63
63194;BME280;49289;51.670;5.624;2023-07-20T04:18:40;101634.76;;;23.51;66.79
63194;BME280;49289;51.670;5.624;2023-07-20T04:20:27;101631.99;;;23.50;66.72
63194;BME280;49289;51.670;5.624;2023-07-20T04:22:14;101631.13;;;23.34;66.70
63194;BME280;49289;51.670;5.624;2023-07-20T04:24:02;101609.81;;;23.07;67.34
63194;BME280;49289;51.670;5.624;2023-07-20T04:25:51;101607.42;;;22.80;67.82
63194;BME280;49289;51.670;5.624;2023-07-20T04:27:40;101633.80;;;23.24;67.86
63194;BME280;49289;51.670;5.624;2023-07-20T04:29:28;101632.89;;;23.39;67.21
63194;BME280;49289;51.670;5.624;2023-07-20T04:31:22;101627.48;;;23.16;67.30
63194;BME280;49289;51.670;5.624;2023-07-20T04:33:10;101638.23;;;22.98;68.09
63194;BME280;49289;51.670;5.624;2023-07-20T04:34:57;101644.08;;;22.92;67.95
63194;BME280;49289;51.670;5.624;2023-07-20T04:36:45;101646.45;;;22.36;69.89
63194;BME280;49289;51.670;5.624;2023-07-20T04:38:32;101650.84;;;22.17;71.35
63194;BME280;49289;51.670;5.624;2023-07-20T04:40:20;101623.63;;;22.08;71.26
63194;BME280;49289;51.670;5.624;2023-07-20T04:42:07;101650.05;;;22.63;71.01
63194;BME280;49289;51.670;5.624;2023-07-20T04:43:55;101641.17;;;23.02;69.08
63194;BME280;49289;51.670;5.624;2023-07-20T04:45:44;101643.99;;;22.91;68.99
63194;BME280;49289;51.670;5.624;2023-07-20T04:47:32;101643.21;;;23.03;69.27
63194;BME280;49289;51.670;5.624;2023-07-20T04:49:20;101646.23;;;22.77;68.64
63194;BME280;49289;51.670;5.624;2023-07-20T04:51:07;101647.06;;;22.55;69.95
63194;BME280;49289;51.670;5.624;2023-07-20T04:52:54;101623.13;;;22.53;70.26
63194;BME280;49289;51.670;5.624;2023-07-20T04:54:41;101625.53;;;22.34;70.34
63194;BME280;49289;51.670;5.624;2023-07-20T04:56:28;101649.17;;;22.85;69.72
63194;BME280;49289;51.670;5.624;2023-07-20T04:58:15;101646.89;;;22.71;69.59
63194;BME280;49289;51.670;5.624;2023-07-20T05:00:03;101650.31;;;22.68;69.89
63194;BME280;49289;51.670;5.624;2023-07-20T05:01:51;101647.66;;;22.85;69.17
63194;BME280;49289;51.670;5.624;2023-07-20T05:03:39;101614.88;;;22.99;68.48
63194;BME280;49289;51.670;5.624;2023-07-20T05:05:26;101643.44;;;23.31;68.18
63194;BME280;49289;51.670;5.624;2023-07-20T05:07:13;101637.13;;;23.22;68.10
63194;BME280;49289;51.670;5.624;2023-07-20T05:09:00;101617.09;;;23.09;67.97
63194;BME280;49289;51.670;5.624;2023-07-20T05:10:47;101641.98;;;22.88;67.65
63194;BME280;49289;51.670;5.624;2023-07-20T05:12:34;101644.67;;;22.05;71.26
63194;BME280;49289;51.670;5.624;2023-07-20T05:14:22;101639.66;;;22.45;71.00
63194;BME280;49289;51.670;5.624;2023-07-20T05:16:10;101643.90;;;22.76;69.82
63194;BME280;49289;51.670;5.624;2023-07-20T05:17:59;101636.64;;;23.01;68.48
63194;BME280;49289;51.670;5.624;2023-07-20T05:19:47;101646.41;;;22.83;68.46
63194;BME280;49289;51.670;5.624;2023-07-20T05:21:35;101651.76;;;22.27;70.02
63194;BME280;49289;51.670;5.624;2023-07-20T05:23:21;101652.59;;;22.26;72.10
63194;BME280;49289;51.670;5.624;2023-07-20T05:25:09;101652.74;;;22.68;70.12
63194;BME280;49289;51.670;5.624;2023-07-20T05:26:57;101651.30;;;22.35;72.36
63194;BME280;49289;51.670;5.624;2023-07-20T05:28:43;101654.54;;;22.43;72.25
63194;BME280;49289;51.670;5.624;2023-07-20T05:30:30;101648.36;;;22.97;69.96
63194;BME280;49289;51.670;5.624;2023-07-20T05:32:18;101658.66;;;22.11;71.60
63194;BME280;49289;51.670;5.624;2023-07-20T05:34:05;101658.45;;;22.19;72.56
63194;BME280;49289;51.670;5.624;2023-07-20T05:35:52;101660.36;;;21.78;73.70
63194;BME280;49289;51.670;5.624;2023-07-20T05:37:41;101665.14;;;21.80;75.07
63194;BME280;49289;51.670;5.624;2023-07-20T05:39:29;101663.23;;;21.91;75.03
63194;BME280;49289;51.670;5.624;2023-07-20T05:41:16;101641.33;;;22.01;73.74
63194;BME280;49289;51.670;5.624;2023-07-20T05:43:03;101664.48;;;22.30;73.00
63194;BME280;49289;51.670;5.624;2023-07-20T05:44:50;101659.72;;;22.81;72.39
63194;BME280;49289;51.670;5.624;2023-07-20T05:46:38;101659.05;;;22.79;70.82
63194;BME280;49289;51.670;5.624;2023-07-20T05:48:27;101659.52;;;22.70;70.82
63194;BME280;49289;51.670;5.624;2023-07-20T05:50:15;101663.23;;;22.22;72.40
63194;BME280;49289;51.670;5.624;2023-07-20T05:52:02;101648.30;;;22.12;73.77
63194;BME280;49289;51.670;5.624;2023-07-20T05:53:49;101666.55;;;22.66;72.96
63194;BME280;49289;51.670;5.624;2023-07-20T05:55:37;101672.79;;;22.92;72.79
63194;BME280;49289;51.670;5.624;2023-07-20T05:57:25;101656.31;;;22.35;73.46
63194;BME280;49289;51.670;5.624;2023-07-20T05:59:13;101684.07;;;22.78;73.11
63194;BME280;49289;51.670;5.624;2023-07-20T06:01:03;101662.83;;;22.91;70.79
63194;BME280;49289;51.670;5.624;2023-07-20T06:02:50;101681.22;;;23.37;70.83
63194;BME280;49289;51.670;5.624;2023-07-20T06:04:38;101692.69;;;22.45;71.53
63194;BME280;49289;51.670;5.624;2023-07-20T06:06:26;101664.81;;;21.81;75.02
63194;BME280;49289;51.670;5.624;2023-07-20T06:08:13;101691.89;;;22.26;75.36
63194;BME280;49289;51.670;5.624;2023-07-20T06:10:00;101689.56;;;21.90;76.90
63194;BME280;49289;51.670;5.624;2023-07-20T06:11:47;101695.38;;;23.05;72.60
63194;BME280;49289;51.670;5.624;2023-07-20T06:13:34;101690.84;;;23.26;71.54
63194;BME280;49289;51.670;5.624;2023-07-20T06:15:37;101696.50;;;22.68;71.91
63194;BME280;49289;51.670;5.624;2023-07-20T06:17:25;101696.73;;;23.16;71.35
63194;BME280;49289;51.670;5.624;2023-07-20T06:19:12;101694.28;;;23.60;68.88
63194;BME280;49289;51.670;5.624;2023-07-20T06:21:01;101691.97;;;23.63;68.39
63194;BME280;49289;51.670;5.624;2023-07-20T06:22:48;101694.28;;;23.03;68.27
63194;BME280;49289;51.670;5.624;2023-07-20T06:24:35;101695.65;;;22.52;70.23
63194;BME280;49289;51.670;5.624;2023-07-20T06:26:22;101697.29;;;22.35;70.89
63194;BME280;49289;51.670;5.624;2023-07-20T06:28:09;101675.59;;;22.19;72.35
63194;BME280;49289;51.670;5.624;2023-07-20T06:29:58;101698.66;;;22.90;70.96
63194;BME280;49289;51.670;5.624;2023-07-20T06:31:46;101670.16;;;23.27;68.91
63194;BME280;49289;51.670;5.624;2023-07-20T06:33:34;101701.23;;;22.85;69.71
63194;BME280;49289;51.670;5.624;2023-07-20T06:35:22;101670.42;;;22.75;70.36
63194;BME280;49289;51.670;5.624;2023-07-20T06:37:10;101694.95;;;23.37;69.77
63194;BME280;49289;51.670;5.624;2023-07-20T06:38:58;101694.84;;;22.71;70.23
63194;BME280;49289;51.670;5.624;2023-07-20T06:40:46;101693.80;;;23.15;70.30
63194;BME280;49289;51.670;5.624;2023-07-20T06:42:34;101691.59;;;23.59;68.58
63194;BME280;49289;51.670;5.624;2023-07-20T06:44:21;101693.13;;;23.74;68.53
63194;BME280;49289;51.670;5.624;2023-07-20T06:46:08;101692.30;;;24.37;67.47
63194;BME280;49289;51.670;5.624;2023-07-20T06:47:57;101668.19;;;24.54;66.42
63194;BME280;49289;51.670;5.624;2023-07-20T06:49:45;101686.82;;;24.78;65.35
63194;BME280;49289;51.670;5.624;2023-07-20T06:51:33;101690.86;;;24.49;62.91
63194;BME280;49289;51.670;5.624;2023-07-20T06:53:20;101691.91;;;24.60;61.10
63194;BME280;49289;51.670;5.624;2023-07-20T06:55:07;101689.70;;;25.00;61.69
63194;BME280;49289;51.670;5.624;2023-07-20T06:56:56;101687.27;;;25.00;60.68
63194;BME280;49289;51.670;5.624;2023-07-20T06:58:44;101689.66;;;24.63;62.55
63194;BME280;49289;51.670;5.624;2023-07-20T07:00:32;101691.34;;;24.87;61.63
63194;BME280;49289;51.670;5.624;2023-07-20T07:02:59;101694.45;;;24.85;61.12
63194;BME280;49289;51.670;5.624;2023-07-20T07:04:47;101695.73;;;24.75;60.69
63194;BME280;49289;51.670;5.624;2023-07-20T07:06:35;101676.09;;;25.17;59.82
63194;BME280;49289;51.670;5.624;2023-07-20T07:08:22;101696.01;;;25.49;59.46
63194;BME280;49289;51.670;5.624;2023-07-20T07:10:10;101695.88;;;25.56;58.83
63194;BME280;49289;51.670;5.624;2023-07-20T07:11:57;101692.77;;;25.72;58.89
63194;BME280;49289;51.670;5.624;2023-07-20T07:13:45;101692.23;;;25.48;58.65
63194;BME280;49289;51.670;5.624;2023-07-20T07:15:33;101691.76;;;25.40;57.50
63194;BME280;49289;51.670;5.624;2023-07-20T07:17:20;101672.87;;;25.27;56.02
63194;BME280;49289;51.670;5.624;2023-07-20T07:19:09;101668.05;;;25.41;57.70
63194;BME280;49289;51.670;5.624;2023-07-20T07:21:02;101695.16;;;25.51;57.85
63194;BME280;49289;51.670;5.624;2023-07-20T07:22:50;101684.47;;;25.53;58.96
63194;BME280;49289;51.670;5.624;2023-07-20T07:24:36;101690.63;;;25.64;58.17
63194;BME280;49289;51.670;5.624;2023-07-20T07:26:23;101699.03;;;24.99;55.55
63194;BME280;49289;51.670;5.624;2023-07-20T07:28:11;101700.36;;;25.01;57.84
63194;BME280;49289;51.670;5.624;2023-07-20T07:30:00;101681.31;;;24.71;57.49
63194;BME280;49289;51.670;5.624;2023-07-20T07:31:48;101699.70;;;25.05;58.63
63194;BME280;49289;51.670;5.624;2023-07-20T07:33:36;101701.63;;;25.36;58.24
63194;BME280;49289;51.670;5.624;2023-07-20T07:35:23;101678.56;;;25.41;58.21
63194;BME280;49289;51.670;5.624;2023-07-20T07:37:10;101699.16;;;25.54;57.04
63194;BME280;49289;51.670;5.624;2023-07-20T07:38:57;101682.13;;;25.51;56.08
63194;BME280;49289;51.670;5.624;2023-07-20T07:40:45;101699.04;;;25.59;54.94
63194;BME280;49289;51.670;5.624;2023-07-20T07:42:34;101697.33;;;25.63;55.08
63194;BME280;49289;51.670;5.624;2023-07-20T07:44:21;101700.36;;;25.51;54.86
63194;BME280;49289;51.670;5.624;2023-07-20T07:46:08;101700.93;;;25.72;53.28
63194;BME280;49289;51.670;5.624;2023-07-20T07:47:56;101699.09;;;25.80;53.20
63194;BME280;49289;51.670;5.624;2023-07-20T07:49:45;101703.05;;;25.63;54.62
63194;BME280;49289;51.670;5.624;2023-07-20T07:51:33;101703.54;;;25.81;54.66
63194;BME280;49289;51.670;5.624;2023-07-20T07:53:21;101683.83;;;25.88;55.20
63194;BME280;49289;51.670;5.624;2023-07-20T07:55:11;101710.70;;;26.11;55.14
63194;BME280;49289;51.670;5.624;2023-07-20T07:56:59;101707.75;;;25.92;54.95
63194;BME280;49289;51.670;5.624;2023-07-20T07:58:47;101710.09;;;26.03;54.14
63194;BME280;49289;51.670;5.624;2023-07-20T08:00:34;101692.92;;;26.22;53.74
63194;BME280;49289;51.670;5.624;2023-07-20T08:02:22;101697.92;;;26.00;52.23
63194;BME280;49289;51.670;5.624;2023-07-20T08:04:11;101718.22;;;26.17;52.45
63194;BME280;49289;51.670;5.624;2023-07-20T08:05:59;101718.28;;;26.40;53.05
63194;BME280;49289;51.670;5.624;2023-07-20T08:07:46;101722.38;;;26.59;51.54
63194;BME280;49289;51.670;5.624;2023-07-20T08:09:33;101701.75;;;26.33;51.70
63194;BME280;49289;51.670;5.624;2023-07-20T08:11:22;101725.61;;;26.80;52.55
63194;BME280;49289;51.670;5.624;2023-07-20T08:13:10;101719.05;;;26.72;50.38
63194;BME280;49289;51.670;5.624;2023-07-20T08:14:58;101721.39;;;26.89;49.98
63194;BME280;49289;51.670;5.624;2023-07-20T08:16:46;101699.58;;;26.74;49.44
63194;BME280;49289;51.670;5.624;2023-07-20T08:18:34;101696.37;;;26.68;47.14
63194;BME280;49289;51.670;5.624;2023-07-20T08:20:22;101720.09;;;26.85;48.11
63194;BME280;49289;51.670;5.624;2023-07-20T08:22:10;101717.34;;;27.18;48.27
63194;BME280;49289;51.670;5.624;2023-07-20T08:23:57;101699.65;;;27.18;47.70
63194;BME280;49289;51.670;5.624;2023-07-20T08:25:44;101721.64;;;27.42;46.93
63194;BME280;49289;51.670;5.624;2023-07-20T08:27:31;101720.09;;;27.08;47.08
63194;BME280;49289;51.670;5.624;2023-07-20T08:29:18;101722.27;;;26.71;44.48
63194;BME280;49289;51.670;5.624;2023-07-20T08:31:05;101700.36;;;25.91;47.63
63194;BME280;49289;51.670;5.624;2023-07-20T08:32:54;101723.23;;;26.68;46.50
63194;BME280;49289;51.670;5.624;2023-07-20T08:34:42;101721.83;;;27.02;44.92
63194;BME280;49289;51.670;5.624;2023-07-20T08:36:29;101721.82;;;27.17;43.79
63194;BME280;49289;51.670;5.624;2023-07-20T08:38:17;101717.02;;;27.22;45.61
63194;BME280;49289;51.670;5.624;2023-07-20T08:40:05;101697.23;;;27.23;45.22
63194;BME280;49289;51.670;5.624;2023-07-20T08:41:53;101694.50;;;27.36;45.30
63194;BME280;49289;51.670;5.624;2023-07-20T08:43:41;101692.28;;;27.90;44.53
63194;BME280;49289;51.670;5.624;2023-07-20T08:45:28;101696.38;;;27.35;42.02
63194;BME280;49289;51.670;5.624;2023-07-20T08:47:16;101687.96;;;27.57;41.86
63194;BME280;49289;51.670;5.624;2023-07-20T08:49:04;101694.37;;;27.46;43.25
63194;BME280;49289;51.670;5.624;2023-07-20T08:50:52;101716.38;;;27.09;43.35
63194;BME280;49289;51.670;5.624;2023-07-20T08:52:40;101718.89;;;27.40;43.94
63194;BME280;49289;51.670;5.624;2023-07-20T08:54:27;101694.11;;;27.57;44.33
63194;BME280;49289;51.670;5.624;2023-07-20T08:56:14;101715.19;;;26.99;43.56
63194;BME280;49289;51.670;5.624;2023-07-20T08:58:02;101717.48;;;27.00;43.84
63194;BME280;49289;51.670;5.624;2023-07-20T08:59:50;101715.71;;;27.08;46.54
63194;BME280;49289;51.670;5.624;2023-07-20T09:01:39;101714.52;;;27.21;45.06
63194;BME280;49289;51.670;5.624;2023-07-20T09:03:27;101695.00;;;26.91;44.78
63194;BME280;49289;51.670;5.624;2023-07-20T09:05:15;101712.88;;;27.06;44.21
63194;BME280;49289;51.670;5.624;2023-07-20T09:07:02;101689.97;;;26.89;43.60
63194;BME280;49289;51.670;5.624;2023-07-20T09:08:51;101697.67;;;25.79;44.48
63194;BME280;49289;51.670;5.624;2023-07-20T09:10:38;101695.64;;;25.84;44.83
63194;BME280;49289;51.670;5.624;2023-07-20T09:12:26;101704.16;;;26.49;44.34
63194;BME280;49289;51.670;5.624;2023-07-20T09:14:15;101715.28;;;27.01;44.38
63194;BME280;49289;51.670;5.624;2023-07-20T09:16:05;101694.62;;;27.10;44.50
63194;BME280;49289;51.670;5.624;2023-07-20T09:17:52;101720.02;;;27.33;43.86
63194;BME280;49289;51.670;5.624;2023-07-20T09:19:42;101712.19;;;27.26;43.76
63194;BME280;49289;51.670;5.624;2023-07-20T09:21:29;101718.23;;;26.77;43.66
63194;BME280;49289;51.670;5.624;2023-07-20T09:23:17;101715.70;;;27.01;43.30
63194;BME280;49289;51.670;5.624;2023-07-20T09:25:05;101691.23;;;26.26;42.81